sensor_id;sensor_type;location;lat;lon;timestamp;P1;durP1;ratioP1;P2;durP2;ratioP2
24034;SDS011;12242;50.952;4.678;2022-08-24T00:01:59;3.65;;;1.58;;
24034;SDS011;12242;50.952;4.678;2022-08-24T00:04:27;3.95;;;1.50;;
24034;SDS011;12242;50.952;4.678;2022-08-24T00:06:59;3.60;;;1.60;;
24034;SDS011;12242;50.952;4.678;2022-08-24T00:09:28;3.38;;;1.70;;
24034;SDS011;12242;50.952;4.678;2022-08-24T00:11:57;4.53;;;2.35;;
24034;SDS011;12242;50.952;4.678;2022-08-24T00:14:25;3.70;;;1.98;;
24034;SDS011;12242;50.952;4.678;2022-08-24T00:16:53;5.45;;;2.10;;
24034;SDS011;12242;50.952;4.678;2022-08-24T00:19:23;6.32;;;1.77;;
24034;SDS011;12242;50.952;4.678;2022-08-24T00:21:51;6.07;;;1.70;;
24034;SDS011;12242;50.952;4.678;2022-08-24T00:24:21;4.15;;;1.92;;
24034;SDS011;12242;50.952;4.678;2022-08-24T00:26:49;3.47;;;1.52;;
24034;SDS011;12242;50.952;4.678;2022-08-24T00:29:16;5.60;;;2.15;;
24034;SDS011;12242;50.952;4.678;2022-08-24T00:31:44;3.38;;;1.80;;
24034;SDS011;12242;50.952;4.678;2022-08-24T00:34:14;4.55;;;2.10;;
24034;SDS011;12242;50.952;4.678;2022-08-24T00:36:43;4.20;;;1.85;;
24034;SDS011;12242;50.952;4.678;2022-08-24T00:39:11;4.60;;;1.83;;
24034;SDS011;12242;50.952;4.678;2022-08-24T00:41:40;5.47;;;2.00;;
24034;SDS011;12242;50.952;4.678;2022-08-24T00:44:09;9.88;;;1.92;;
24034;SDS011;12242;50.952;4.678;2022-08-24T00:46:42;3.28;;;1.70;;
24034;SDS011;12242;50.952;4.678;2022-08-24T00:52:20;4.50;;;1.85;;
24034;SDS011;12242;50.952;4.678;2022-08-24T00:54:53;3.80;;;1.95;;
24034;SDS011;12242;50.952;4.678;2022-08-24T00:57:25;4.90;;;1.70;;
24034;SDS011;12242;50.952;4.678;2022-08-24T00:59:58;3.50;;;2.00;;
24034;SDS011;12242;50.952;4.678;2022-08-24T01:02:31;4.00;;;1.85;;
24034;SDS011;12242;50.952;4.678;2022-08-24T01:05:02;5.38;;;2.20;;
24034;SDS011;12242;50.952;4.678;2022-08-24T01:07:34;4.88;;;2.15;;
24034;SDS011;12242;50.952;4.678;2022-08-24T01:10:06;5.03;;;1.90;;
24034;SDS011;12242;50.952;4.678;2022-08-24T01:12:38;5.18;;;1.48;;
24034;SDS011;12242;50.952;4.678;2022-08-24T01:15:29;4.90;;;2.60;;
24034;SDS011;12242;50.952;4.678;2022-08-24T01:18:02;4.65;;;2.10;;
24034;SDS011;12242;50.952;4.678;2022-08-24T01:20:51;4.25;;;1.95;;
24034;SDS011;12242;50.952;4.678;2022-08-24T01:26:33;3.90;;;2.03;;
24034;SDS011;12242;50.952;4.678;2022-08-24T01:29:07;6.00;;;2.10;;
24034;SDS011;12242;50.952;4.678;2022-08-24T01:31:39;5.25;;;1.95;;
24034;SDS011;12242;50.952;4.678;2022-08-24T01:34:11;3.42;;;2.00;;
24034;SDS011;12242;50.952;4.678;2022-08-24T01:36:48;5.25;;;2.10;;
24034;SDS011;12242;50.952;4.678;2022-08-24T01:39:21;3.65;;;1.85;;
24034;SDS011;12242;50.952;4.678;2022-08-24T01:41:54;4.63;;;1.85;;
24034;SDS011;12242;50.952;4.678;2022-08-24T01:44:23;4.35;;;1.98;;
24034;SDS011;12242;50.952;4.678;2022-08-24T01:46:52;3.67;;;1.90;;
24034;SDS011;12242;50.952;4.678;2022-08-24T01:49:24;4.30;;;2.10;;
24034;SDS011;12242;50.952;4.678;2022-08-24T01:51:54;5.10;;;1.80;;
24034;SDS011;12242;50.952;4.678;2022-08-24T01:54:22;3.40;;;1.70;;
24034;SDS011;12242;50.952;4.678;2022-08-24T01:56:52;4.07;;;1.95;;
24034;SDS011;12242;50.952;4.678;2022-08-24T01:59:22;5.35;;;2.00;;
24034;SDS011;12242;50.952;4.678;2022-08-24T02:01:52;3.88;;;1.90;;
24034;SDS011;12242;50.952;4.678;2022-08-24T02:04:22;3.53;;;1.70;;
24034;SDS011;12242;50.952;4.678;2022-08-24T02:06:50;3.70;;;2.00;;
24034;SDS011;12242;50.952;4.678;2022-08-24T02:09:19;4.28;;;1.90;;
24034;SDS011;12242;50.952;4.678;2022-08-24T02:11:47;3.67;;;1.90;;
24034;SDS011;12242;50.952;4.678;2022-08-24T02:14:14;4.60;;;1.73;;
24034;SDS011;12242;50.952;4.678;2022-08-24T02:16:45;4.07;;;1.73;;
24034;SDS011;12242;50.952;4.678;2022-08-24T02:19:12;5.78;;;1.85;;
24034;SDS011;12242;50.952;4.678;2022-08-24T02:21:40;5.07;;;2.00;;
24034;SDS011;12242;50.952;4.678;2022-08-24T02:24:10;6.50;;;1.90;;
24034;SDS011;12242;50.952;4.678;2022-08-24T02:26:37;3.83;;;2.10;;
24034;SDS011;12242;50.952;4.678;2022-08-24T02:29:06;3.00;;;1.60;;
24034;SDS011;12242;50.952;4.678;2022-08-24T02:31:33;3.38;;;1.73;;
24034;SDS011;12242;50.952;4.678;2022-08-24T02:34:02;4.60;;;2.03;;
24034;SDS011;12242;50.952;4.678;2022-08-24T02:36:30;4.60;;;2.20;;
24034;SDS011;12242;50.952;4.678;2022-08-24T02:38:58;5.20;;;1.98;;
24034;SDS011;12242;50.952;4.678;2022-08-24T02:41:26;3.63;;;2.08;;
24034;SDS011;12242;50.952;4.678;2022-08-24T02:43:54;4.93;;;2.10;;
24034;SDS011;12242;50.952;4.678;2022-08-24T02:46:24;5.45;;;1.88;;
24034;SDS011;12242;50.952;4.678;2022-08-24T02:48:53;4.60;;;1.85;;
24034;SDS011;12242;50.952;4.678;2022-08-24T02:51:37;2.38;;;1.55;;
24034;SDS011;12242;50.952;4.678;2022-08-24T02:54:11;4.15;;;2.05;;
24034;SDS011;12242;50.952;4.678;2022-08-24T02:56:43;4.25;;;2.00;;
24034;SDS011;12242;50.952;4.678;2022-08-24T02:59:11;5.50;;;1.95;;
24034;SDS011;12242;50.952;4.678;2022-08-24T03:01:42;4.80;;;2.03;;
24034;SDS011;12242;50.952;4.678;2022-08-24T03:04:11;3.78;;;1.80;;
24034;SDS011;12242;50.952;4.678;2022-08-24T03:06:39;4.32;;;2.03;;
24034;SDS011;12242;50.952;4.678;2022-08-24T03:09:07;5.80;;;1.92;;
24034;SDS011;12242;50.952;4.678;2022-08-24T03:11:34;3.00;;;1.63;;
24034;SDS011;12242;50.952;4.678;2022-08-24T03:14:02;4.07;;;1.85;;
24034;SDS011;12242;50.952;4.678;2022-08-24T03:19:04;4.30;;;1.90;;
24034;SDS011;12242;50.952;4.678;2022-08-24T03:21:31;4.10;;;2.00;;
24034;SDS011;12242;50.952;4.678;2022-08-24T03:23:59;3.40;;;1.80;;
24034;SDS011;12242;50.952;4.678;2022-08-24T03:26:27;9.45;;;2.20;;
24034;SDS011;12242;50.952;4.678;2022-08-24T03:28:54;6.00;;;1.92;;
24034;SDS011;12242;50.952;4.678;2022-08-24T03:31:26;5.72;;;2.17;;
24034;SDS011;12242;50.952;4.678;2022-08-24T03:33:54;4.40;;;2.10;;
24034;SDS011;12242;50.952;4.678;2022-08-24T03:36:22;3.78;;;1.92;;
24034;SDS011;12242;50.952;4.678;2022-08-24T03:38:52;3.78;;;1.75;;
24034;SDS011;12242;50.952;4.678;2022-08-24T03:41:20;3.30;;;1.80;;
24034;SDS011;12242;50.952;4.678;2022-08-24T03:43:48;5.68;;;1.80;;
24034;SDS011;12242;50.952;4.678;2022-08-24T03:46:17;3.10;;;1.58;;
24034;SDS011;12242;50.952;4.678;2022-08-24T03:48:50;4.45;;;2.05;;
24034;SDS011;12242;50.952;4.678;2022-08-24T03:51:22;4.95;;;2.00;;
24034;SDS011;12242;50.952;4.678;2022-08-24T03:53:52;5.85;;;2.00;;
24034;SDS011;12242;50.952;4.678;2022-08-24T03:56:22;4.80;;;2.33;;
24034;SDS011;12242;50.952;4.678;2022-08-24T03:58:50;4.32;;;2.00;;
24034;SDS011;12242;50.952;4.678;2022-08-24T04:01:18;4.80;;;2.67;;
24034;SDS011;12242;50.952;4.678;2022-08-24T04:03:49;6.88;;;2.17;;
24034;SDS011;12242;50.952;4.678;2022-08-24T04:06:38;3.67;;;2.10;;
24034;SDS011;12242;50.952;4.678;2022-08-24T04:09:12;5.30;;;2.13;;
24034;SDS011;12242;50.952;4.678;2022-08-24T04:11:42;4.60;;;2.08;;
24034;SDS011;12242;50.952;4.678;2022-08-24T04:14:13;5.25;;;2.55;;
24034;SDS011;12242;50.952;4.678;2022-08-24T04:16:53;3.08;;;1.95;;
24034;SDS011;12242;50.952;4.678;2022-08-24T04:19:23;3.58;;;2.00;;
24034;SDS011;12242;50.952;4.678;2022-08-24T04:21:51;4.32;;;1.88;;
24034;SDS011;12242;50.952;4.678;2022-08-24T04:24:22;5.95;;;2.30;;
24034;SDS011;12242;50.952;4.678;2022-08-24T04:26:49;3.67;;;1.95;;
24034;SDS011;12242;50.952;4.678;2022-08-24T04:29:17;4.30;;;2.20;;
24034;SDS011;12242;50.952;4.678;2022-08-24T04:31:46;5.45;;;2.10;;
24034;SDS011;12242;50.952;4.678;2022-08-24T04:34:14;3.97;;;2.08;;
24034;SDS011;12242;50.952;4.678;2022-08-24T04:36:43;5.65;;;2.33;;
24034;SDS011;12242;50.952;4.678;2022-08-24T04:39:12;6.68;;;2.15;;
24034;SDS011;12242;50.952;4.678;2022-08-24T04:41:42;3.83;;;1.70;;
24034;SDS011;12242;50.952;4.678;2022-08-24T04:44:10;5.95;;;2.03;;
24034;SDS011;12242;50.952;4.678;2022-08-24T04:46:37;7.00;;;2.60;;
24034;SDS011;12242;50.952;4.678;2022-08-24T04:49:05;6.05;;;2.08;;
24034;SDS011;12242;50.952;4.678;2022-08-24T04:51:32;5.28;;;1.98;;
24034;SDS011;12242;50.952;4.678;2022-08-24T04:54:03;5.20;;;2.08;;
24034;SDS011;12242;50.952;4.678;2022-08-24T04:56:31;4.25;;;2.13;;
24034;SDS011;12242;50.952;4.678;2022-08-24T04:58:59;4.25;;;2.10;;
24034;SDS011;12242;50.952;4.678;2022-08-24T05:01:29;7.68;;;2.35;;
24034;SDS011;12242;50.952;4.678;2022-08-24T05:04:01;7.22;;;2.30;;
24034;SDS011;12242;50.952;4.678;2022-08-24T05:06:31;5.18;;;2.30;;
24034;SDS011;12242;50.952;4.678;2022-08-24T05:08:59;6.32;;;2.85;;
24034;SDS011;12242;50.952;4.678;2022-08-24T05:11:28;6.03;;;2.65;;
24034;SDS011;12242;50.952;4.678;2022-08-24T05:13:56;6.43;;;3.08;;
24034;SDS011;12242;50.952;4.678;2022-08-24T05:16:27;5.32;;;2.58;;
24034;SDS011;12242;50.952;4.678;2022-08-24T05:18:58;5.10;;;2.30;;
24034;SDS011;12242;50.952;4.678;2022-08-24T05:21:26;5.15;;;2.53;;
24034;SDS011;12242;50.952;4.678;2022-08-24T05:23:54;6.57;;;2.53;;
24034;SDS011;12242;50.952;4.678;2022-08-24T05:26:22;5.22;;;2.63;;
24034;SDS011;12242;50.952;4.678;2022-08-24T05:28:55;5.55;;;2.75;;
24034;SDS011;12242;50.952;4.678;2022-08-24T05:31:25;4.95;;;2.55;;
24034;SDS011;12242;50.952;4.678;2022-08-24T05:33:54;4.78;;;2.58;;
24034;SDS011;12242;50.952;4.678;2022-08-24T05:36:22;8.70;;;2.35;;
24034;SDS011;12242;50.952;4.678;2022-08-24T05:38:55;7.97;;;2.65;;
24034;SDS011;12242;50.952;4.678;2022-08-24T05:41:27;6.20;;;2.40;;
24034;SDS011;12242;50.952;4.678;2022-08-24T05:43:55;5.63;;;2.65;;
24034;SDS011;12242;50.952;4.678;2022-08-24T05:46:25;5.85;;;3.20;;
24034;SDS011;12242;50.952;4.678;2022-08-24T05:48:53;7.97;;;2.70;;
24034;SDS011;12242;50.952;4.678;2022-08-24T05:51:25;5.85;;;2.50;;
24034;SDS011;12242;50.952;4.678;2022-08-24T05:53:56;5.88;;;2.45;;
24034;SDS011;12242;50.952;4.678;2022-08-24T05:56:23;6.07;;;2.85;;
24034;SDS011;12242;50.952;4.678;2022-08-24T05:58:57;4.85;;;2.78;;
24034;SDS011;12242;50.952;4.678;2022-08-24T06:01:27;6.00;;;2.95;;
24034;SDS011;12242;50.952;4.678;2022-08-24T06:03:56;10.27;;;3.60;;
24034;SDS011;12242;50.952;4.678;2022-08-24T06:06:24;6.28;;;3.35;;
24034;SDS011;12242;50.952;4.678;2022-08-24T06:08:54;4.93;;;3.03;;
24034;SDS011;12242;50.952;4.678;2022-08-24T06:11:28;8.77;;;3.28;;
24034;SDS011;12242;50.952;4.678;2022-08-24T06:14:10;5.85;;;3.15;;
24034;SDS011;12242;50.952;4.678;2022-08-24T06:19:14;6.78;;;3.15;;
24034;SDS011;12242;50.952;4.678;2022-08-24T06:21:44;6.78;;;3.33;;
24034;SDS011;12242;50.952;4.678;2022-08-24T06:24:14;7.88;;;4.10;;
24034;SDS011;12242;50.952;4.678;2022-08-24T06:26:43;8.32;;;4.18;;
24034;SDS011;12242;50.952;4.678;2022-08-24T06:29:29;7.63;;;3.97;;
24034;SDS011;12242;50.952;4.678;2022-08-24T06:32:02;7.22;;;3.72;;
24034;SDS011;12242;50.952;4.678;2022-08-24T06:34:30;10.02;;;4.38;;
24034;SDS011;12242;50.952;4.678;2022-08-24T06:36:58;7.72;;;4.50;;
24034;SDS011;12242;50.952;4.678;2022-08-24T06:39:30;10.85;;;4.53;;
24034;SDS011;12242;50.952;4.678;2022-08-24T06:42:00;11.07;;;5.78;;
24034;SDS011;12242;50.952;4.678;2022-08-24T06:44:27;10.93;;;6.10;;
24034;SDS011;12242;50.952;4.678;2022-08-24T06:46:58;11.63;;;6.38;;
24034;SDS011;12242;50.952;4.678;2022-08-24T06:49:26;14.55;;;8.55;;
24034;SDS011;12242;50.952;4.678;2022-08-24T06:51:56;13.85;;;7.25;;
24034;SDS011;12242;50.952;4.678;2022-08-24T06:54:29;12.90;;;7.38;;
24034;SDS011;12242;50.952;4.678;2022-08-24T06:56:57;15.25;;;7.70;;
24034;SDS011;12242;50.952;4.678;2022-08-24T06:59:25;16.25;;;9.55;;
24034;SDS011;12242;50.952;4.678;2022-08-24T07:01:56;15.32;;;8.90;;
24034;SDS011;12242;50.952;4.678;2022-08-24T07:04:25;17.83;;;8.20;;
24034;SDS011;12242;50.952;4.678;2022-08-24T07:06:54;19.25;;;10.13;;
24034;SDS011;12242;50.952;4.678;2022-08-24T07:09:22;21.45;;;10.52;;
24034;SDS011;12242;50.952;4.678;2022-08-24T07:11:51;15.93;;;9.52;;
24034;SDS011;12242;50.952;4.678;2022-08-24T07:14:18;22.55;;;10.63;;
24034;SDS011;12242;50.952;4.678;2022-08-24T07:16:47;21.10;;;11.98;;
24034;SDS011;12242;50.952;4.678;2022-08-24T07:19:14;22.13;;;12.30;;
24034;SDS011;12242;50.952;4.678;2022-08-24T07:21:42;17.45;;;10.82;;
24034;SDS011;12242;50.952;4.678;2022-08-24T07:24:10;24.10;;;11.50;;
24034;SDS011;12242;50.952;4.678;2022-08-24T07:26:37;17.55;;;11.15;;
24034;SDS011;12242;50.952;4.678;2022-08-24T07:29:09;17.60;;;11.07;;
24034;SDS011;12242;50.952;4.678;2022-08-24T07:32:00;19.73;;;11.13;;
24034;SDS011;12242;50.952;4.678;2022-08-24T07:34:28;24.50;;;12.02;;
24034;SDS011;12242;50.952;4.678;2022-08-24T07:36:58;18.17;;;11.23;;
24034;SDS011;12242;50.952;4.678;2022-08-24T07:39:26;18.08;;;11.52;;
24034;SDS011;12242;50.952;4.678;2022-08-24T07:41:53;18.05;;;11.70;;
24034;SDS011;12242;50.952;4.678;2022-08-24T07:44:40;21.70;;;11.00;;
24034;SDS011;12242;50.952;4.678;2022-08-24T07:47:10;17.63;;;10.63;;
24034;SDS011;12242;50.952;4.678;2022-08-24T07:49:59;17.05;;;10.50;;
24034;SDS011;12242;50.952;4.678;2022-08-24T07:52:26;20.30;;;11.68;;
24034;SDS011;12242;50.952;4.678;2022-08-24T07:54:57;19.17;;;10.75;;
24034;SDS011;12242;50.952;4.678;2022-08-24T07:57:25;19.25;;;11.55;;
24034;SDS011;12242;50.952;4.678;2022-08-24T07:59:53;21.73;;;11.68;;
24034;SDS011;12242;50.952;4.678;2022-08-24T08:02:24;17.05;;;10.60;;
24034;SDS011;12242;50.952;4.678;2022-08-24T08:05:01;17.88;;;11.15;;
24034;SDS011;12242;50.952;4.678;2022-08-24T08:07:30;21.30;;;11.23;;
24034;SDS011;12242;50.952;4.678;2022-08-24T08:09:59;21.77;;;11.38;;
24034;SDS011;12242;50.952;4.678;2022-08-24T08:12:31;20.90;;;11.90;;
24034;SDS011;12242;50.952;4.678;2022-08-24T08:15:00;19.17;;;11.63;;
24034;SDS011;12242;50.952;4.678;2022-08-24T08:17:31;21.27;;;12.98;;
24034;SDS011;12242;50.952;4.678;2022-08-24T08:19:59;21.95;;;11.73;;
24034;SDS011;12242;50.952;4.678;2022-08-24T08:22:30;20.48;;;11.40;;
24034;SDS011;12242;50.952;4.678;2022-08-24T08:25:30;20.35;;;11.95;;
24034;SDS011;12242;50.952;4.678;2022-08-24T08:28:01;23.48;;;11.43;;
24034;SDS011;12242;50.952;4.678;2022-08-24T08:30:51;20.77;;;11.20;;
24034;SDS011;12242;50.952;4.678;2022-08-24T08:33:22;22.45;;;11.75;;
24034;SDS011;12242;50.952;4.678;2022-08-24T08:35:49;21.45;;;11.30;;
24034;SDS011;12242;50.952;4.678;2022-08-24T08:38:26;18.15;;;10.82;;
24034;SDS011;12242;50.952;4.678;2022-08-24T08:43:45;15.95;;;10.32;;
24034;SDS011;12242;50.952;4.678;2022-08-24T08:57:28;15.40;;;9.63;;
24034;SDS011;12242;50.952;4.678;2022-08-24T09:00:07;17.25;;;9.43;;
24034;SDS011;12242;50.952;4.678;2022-08-24T09:11:29;14.50;;;8.27;;
24034;SDS011;12242;50.952;4.678;2022-08-24T09:34:35;17.77;;;7.22;;
24034;SDS011;12242;50.952;4.678;2022-08-24T09:37:33;10.55;;;7.18;;
24034;SDS011;12242;50.952;4.678;2022-08-24T09:40:38;12.38;;;7.40;;
24034;SDS011;12242;50.952;4.678;2022-08-24T09:54:59;10.00;;;5.45;;
24034;SDS011;12242;50.952;4.678;2022-08-24T10:00:46;7.15;;;4.20;;
24034;SDS011;12242;50.952;4.678;2022-08-24T10:20:19;3.85;;;2.38;;
24034;SDS011;12242;50.952;4.678;2022-08-24T10:25:32;4.38;;;2.30;;
24034;SDS011;12242;50.952;4.678;2022-08-24T10:31:06;4.97;;;2.25;;
24034;SDS011;12242;50.952;4.678;2022-08-24T10:45:49;4.00;;;2.30;;
24034;SDS011;12242;50.952;4.678;2022-08-24T10:54:45;3.63;;;2.10;;
24034;SDS011;12242;50.952;4.678;2022-08-24T10:57:25;3.60;;;2.10;;
24034;SDS011;12242;50.952;4.678;2022-08-24T11:00:06;3.70;;;1.90;;
24034;SDS011;12242;50.952;4.678;2022-08-24T11:02:49;3.03;;;1.80;;
24034;SDS011;12242;50.952;4.678;2022-08-24T11:08:22;5.30;;;2.03;;
24034;SDS011;12242;50.952;4.678;2022-08-24T11:11:13;4.70;;;2.03;;
24034;SDS011;12242;50.952;4.678;2022-08-24T11:13:50;5.55;;;2.40;;
24034;SDS011;12242;50.952;4.678;2022-08-24T11:16:39;3.20;;;1.85;;
24034;SDS011;12242;50.952;4.678;2022-08-24T11:19:12;2.30;;;1.40;;
24034;SDS011;12242;50.952;4.678;2022-08-24T11:21:56;4.00;;;1.85;;
24034;SDS011;12242;50.952;4.678;2022-08-24T11:24:43;5.20;;;1.77;;
24034;SDS011;12242;50.952;4.678;2022-08-24T11:29:53;2.78;;;1.60;;
24034;SDS011;12242;50.952;4.678;2022-08-24T11:34:59;3.45;;;1.80;;
24034;SDS011;12242;50.952;4.678;2022-08-24T11:37:35;4.22;;;1.85;;
24034;SDS011;12242;50.952;4.678;2022-08-24T11:40:05;3.80;;;1.58;;
24034;SDS011;12242;50.952;4.678;2022-08-24T11:42:37;3.72;;;1.50;;
24034;SDS011;12242;50.952;4.678;2022-08-24T11:45:15;2.67;;;1.48;;
24034;SDS011;12242;50.952;4.678;2022-08-24T11:48:19;3.05;;;1.58;;
24034;SDS011;12242;50.952;4.678;2022-08-24T12:01:56;2.25;;;1.10;;
24034;SDS011;12242;50.952;4.678;2022-08-24T12:04:39;1.88;;;0.90;;
24034;SDS011;12242;50.952;4.678;2022-08-24T12:10:15;1.38;;;0.65;;
24034;SDS011;12242;50.952;4.678;2022-08-24T12:15:47;1.02;;;0.80;;
24034;SDS011;12242;50.952;4.678;2022-08-24T12:21:15;5.10;;;1.02;;
24034;SDS011;12242;50.952;4.678;2022-08-24T12:23:50;2.25;;;0.90;;
24034;SDS011;12242;50.952;4.678;2022-08-24T12:29:25;1.25;;;0.80;;
24034;SDS011;12242;50.952;4.678;2022-08-24T12:32:02;2.78;;;0.80;;
24034;SDS011;12242;50.952;4.678;2022-08-24T12:42:44;2.75;;;1.13;;
24034;SDS011;12242;50.952;4.678;2022-08-24T12:45:19;3.15;;;1.00;;
24034;SDS011;12242;50.952;4.678;2022-08-24T12:47:53;3.50;;;0.93;;
24034;SDS011;12242;50.952;4.678;2022-08-24T12:53:21;1.40;;;0.75;;
24034;SDS011;12242;50.952;4.678;2022-08-24T13:02:04;1.23;;;0.80;;
24034;SDS011;12242;50.952;4.678;2022-08-24T13:04:58;4.45;;;1.10;;
24034;SDS011;12242;50.952;4.678;2022-08-24T13:07:42;2.15;;;1.02;;
24034;SDS011;12242;50.952;4.678;2022-08-24T13:10:32;2.00;;;0.93;;
24034;SDS011;12242;50.952;4.678;2022-08-24T13:13:10;2.42;;;0.85;;
24034;SDS011;12242;50.952;4.678;2022-08-24T13:33:50;4.53;;;1.00;;
24034;SDS011;12242;50.952;4.678;2022-08-24T13:39:00;3.08;;;0.98;;
24034;SDS011;12242;50.952;4.678;2022-08-24T13:41:46;1.60;;;1.00;;
24034;SDS011;12242;50.952;4.678;2022-08-24T13:44:52;1.17;;;0.90;;
24034;SDS011;12242;50.952;4.678;2022-08-24T13:55:43;5.45;;;1.20;;
24034;SDS011;12242;50.952;4.678;2022-08-24T13:58:38;3.42;;;1.20;;
24034;SDS011;12242;50.952;4.678;2022-08-24T14:15:05;2.40;;;1.10;;
24034;SDS011;12242;50.952;4.678;2022-08-24T14:17:40;2.03;;;1.20;;
24034;SDS011;12242;50.952;4.678;2022-08-24T14:38:12;3.60;;;1.20;;
24034;SDS011;12242;50.952;4.678;2022-08-24T14:40:36;2.35;;;1.20;;
24034;SDS011;12242;50.952;4.678;2022-08-24T14:54:10;2.88;;;1.60;;
24034;SDS011;12242;50.952;4.678;2022-08-24T15:02:42;3.28;;;1.35;;
24034;SDS011;12242;50.952;4.678;2022-08-24T15:08:05;2.67;;;1.27;;
24034;SDS011;12242;50.952;4.678;2022-08-24T15:10:41;2.35;;;1.25;;
24034;SDS011;12242;50.952;4.678;2022-08-24T15:15:59;3.45;;;1.30;;
24034;SDS011;12242;50.952;4.678;2022-08-24T15:18:39;3.40;;;1.40;;
24034;SDS011;12242;50.952;4.678;2022-08-24T15:29:18;2.53;;;1.20;;
24034;SDS011;12242;50.952;4.678;2022-08-24T15:32:23;4.50;;;1.30;;
24034;SDS011;12242;50.952;4.678;2022-08-24T15:34:49;3.67;;;1.42;;
24034;SDS011;12242;50.952;4.678;2022-08-24T15:37:52;3.00;;;1.58;;
24034;SDS011;12242;50.952;4.678;2022-08-24T15:42:44;3.53;;;1.35;;
24034;SDS011;12242;50.952;4.678;2022-08-24T15:45:15;3.28;;;1.40;;
24034;SDS011;12242;50.952;4.678;2022-08-24T15:47:46;4.30;;;1.17;;
24034;SDS011;12242;50.952;4.678;2022-08-24T16:00:38;4.18;;;1.40;;
24034;SDS011;12242;50.952;4.678;2022-08-24T16:03:25;4.57;;;1.50;;
24034;SDS011;12242;50.952;4.678;2022-08-24T16:06:16;2.50;;;1.40;;
24034;SDS011;12242;50.952;4.678;2022-08-24T16:09:02;5.28;;;1.50;;
24034;SDS011;12242;50.952;4.678;2022-08-24T16:11:43;3.20;;;1.40;;
24034;SDS011;12242;50.952;4.678;2022-08-24T16:14:25;2.80;;;1.42;;
24034;SDS011;12242;50.952;4.678;2022-08-24T16:17:18;2.80;;;1.42;;
24034;SDS011;12242;50.952;4.678;2022-08-24T16:20:05;3.38;;;1.58;;
24034;SDS011;12242;50.952;4.678;2022-08-24T16:22:49;3.85;;;1.67;;
24034;SDS011;12242;50.952;4.678;2022-08-24T16:30:40;4.40;;;1.30;;
24034;SDS011;12242;50.952;4.678;2022-08-24T16:36:11;4.80;;;1.60;;
24034;SDS011;12242;50.952;4.678;2022-08-24T16:38:44;2.88;;;1.60;;
24034;SDS011;12242;50.952;4.678;2022-08-24T16:41:14;2.67;;;1.40;;
24034;SDS011;12242;50.952;4.678;2022-08-24T16:43:46;2.38;;;1.27;;
24034;SDS011;12242;50.952;4.678;2022-08-24T16:46:19;2.80;;;1.30;;
24034;SDS011;12242;50.952;4.678;2022-08-24T16:48:49;4.60;;;1.70;;
24034;SDS011;12242;50.952;4.678;2022-08-24T16:51:17;2.90;;;1.70;;
24034;SDS011;12242;50.952;4.678;2022-08-24T16:53:44;4.05;;;1.60;;
24034;SDS011;12242;50.952;4.678;2022-08-24T16:56:15;4.28;;;1.70;;
24034;SDS011;12242;50.952;4.678;2022-08-24T16:58:44;6.35;;;4.35;;
24034;SDS011;12242;50.952;4.678;2022-08-24T17:01:13;3.30;;;2.20;;
24034;SDS011;12242;50.952;4.678;2022-08-24T17:03:41;5.72;;;1.30;;
24034;SDS011;12242;50.952;4.678;2022-08-24T17:06:11;6.05;;;2.30;;
24034;SDS011;12242;50.952;4.678;2022-08-24T17:08:38;5.22;;;1.58;;
24034;SDS011;12242;50.952;4.678;2022-08-24T17:11:06;5.55;;;1.50;;
24034;SDS011;12242;50.952;4.678;2022-08-24T17:13:34;2.88;;;1.45;;
24034;SDS011;12242;50.952;4.678;2022-08-24T17:16:59;4.53;;;1.80;;
24034;SDS011;12242;50.952;4.678;2022-08-24T17:19:08;2.70;;;1.42;;
24034;SDS011;12242;50.952;4.678;2022-08-24T17:21:39;3.28;;;1.45;;
24034;SDS011;12242;50.952;4.678;2022-08-24T17:24:09;2.47;;;1.40;;
24034;SDS011;12242;50.952;4.678;2022-08-24T17:26:42;3.67;;;1.75;;
24034;SDS011;12242;50.952;4.678;2022-08-24T17:29:14;2.40;;;1.40;;
24034;SDS011;12242;50.952;4.678;2022-08-24T17:31:45;2.70;;;1.33;;
24034;SDS011;12242;50.952;4.678;2022-08-24T17:34:17;3.30;;;1.50;;
24034;SDS011;12242;50.952;4.678;2022-08-24T17:36:53;6.78;;;1.40;;
24034;SDS011;12242;50.952;4.678;2022-08-24T17:39:22;2.95;;;1.55;;
24034;SDS011;12242;50.952;4.678;2022-08-24T17:41:51;3.75;;;1.30;;
24034;SDS011;12242;50.952;4.678;2022-08-24T17:44:22;3.63;;;1.40;;
24034;SDS011;12242;50.952;4.678;2022-08-24T17:46:53;4.70;;;1.80;;
24034;SDS011;12242;50.952;4.678;2022-08-24T17:49:23;2.80;;;1.65;;
24034;SDS011;12242;50.952;4.678;2022-08-24T17:51:51;6.10;;;1.75;;
24034;SDS011;12242;50.952;4.678;2022-08-24T17:54:21;3.00;;;1.50;;
24034;SDS011;12242;50.952;4.678;2022-08-24T17:56:49;3.40;;;1.50;;
24034;SDS011;12242;50.952;4.678;2022-08-24T17:59:17;2.80;;;1.60;;
24034;SDS011;12242;50.952;4.678;2022-08-24T18:02:00;9.40;;;1.83;;
24034;SDS011;12242;50.952;4.678;2022-08-24T18:04:30;6.70;;;1.67;;
24034;SDS011;12242;50.952;4.678;2022-08-24T18:07:00;4.72;;;1.70;;
24034;SDS011;12242;50.952;4.678;2022-08-24T18:09:39;5.03;;;1.58;;
24034;SDS011;12242;50.952;4.678;2022-08-24T18:12:11;4.30;;;1.88;;
24034;SDS011;12242;50.952;4.678;2022-08-24T18:14:46;6.53;;;1.70;;
24034;SDS011;12242;50.952;4.678;2022-08-24T18:17:17;4.90;;;1.57;;
24034;SDS011;12242;50.952;4.678;2022-08-24T18:19:48;5.28;;;1.80;;
24034;SDS011;12242;50.952;4.678;2022-08-24T18:22:20;3.25;;;2.10;;
24034;SDS011;12242;50.952;4.678;2022-08-24T18:24:48;3.60;;;2.03;;
24034;SDS011;12242;50.952;4.678;2022-08-24T18:27:16;4.35;;;1.95;;
24034;SDS011;12242;50.952;4.678;2022-08-24T18:29:50;4.38;;;1.73;;
24034;SDS011;12242;50.952;4.678;2022-08-24T18:45:29;4.57;;;2.10;;
24034;SDS011;12242;50.952;4.678;2022-08-24T18:47:59;3.17;;;1.90;;
24034;SDS011;12242;50.952;4.678;2022-08-24T18:50:30;3.17;;;1.80;;
24034;SDS011;12242;50.952;4.678;2022-08-24T18:53:07;2.83;;;1.90;;
24034;SDS011;12242;50.952;4.678;2022-08-24T18:55:35;3.42;;;1.50;;
24034;SDS011;12242;50.952;4.678;2022-08-24T18:58:07;4.10;;;1.98;;
24034;SDS011;12242;50.952;4.678;2022-08-24T19:00:38;5.82;;;1.95;;
24034;SDS011;12242;50.952;4.678;2022-08-24T19:03:07;3.17;;;2.10;;
24034;SDS011;12242;50.952;4.678;2022-08-24T19:05:39;2.58;;;1.63;;
24034;SDS011;12242;50.952;4.678;2022-08-24T19:08:11;4.50;;;1.90;;
24034;SDS011;12242;50.952;4.678;2022-08-24T19:10:39;3.83;;;2.10;;
24034;SDS011;12242;50.952;4.678;2022-08-24T19:13:07;5.00;;;2.28;;
24034;SDS011;12242;50.952;4.678;2022-08-24T19:15:41;3.75;;;2.20;;
24034;SDS011;12242;50.952;4.678;2022-08-24T19:18:12;5.00;;;1.90;;
24034;SDS011;12242;50.952;4.678;2022-08-24T19:20:45;7.80;;;2.20;;
24034;SDS011;12242;50.952;4.678;2022-08-24T19:23:16;3.83;;;2.00;;
24034;SDS011;12242;50.952;4.678;2022-08-24T19:25:46;4.60;;;1.95;;
24034;SDS011;12242;50.952;4.678;2022-08-24T19:28:14;4.30;;;2.28;;
24034;SDS011;12242;50.952;4.678;2022-08-24T19:30:42;6.18;;;2.20;;
24034;SDS011;12242;50.952;4.678;2022-08-24T19:33:12;7.88;;;2.28;;
24034;SDS011;12242;50.952;4.678;2022-08-24T19:35:48;10.07;;;2.42;;
24034;SDS011;12242;50.952;4.678;2022-08-24T19:38:17;7.95;;;2.22;;
24034;SDS011;12242;50.952;4.678;2022-08-24T19:40:51;3.65;;;2.10;;
24034;SDS011;12242;50.952;4.678;2022-08-24T19:43:19;5.20;;;2.25;;
24034;SDS011;12242;50.952;4.678;2022-08-24T19:45:52;8.20;;;2.37;;
24034;SDS011;12242;50.952;4.678;2022-08-24T19:48:32;3.80;;;2.15;;
24034;SDS011;12242;50.952;4.678;2022-08-24T19:51:05;6.85;;;2.30;;
24034;SDS011;12242;50.952;4.678;2022-08-24T19:53:35;5.03;;;2.47;;
24034;SDS011;12242;50.952;4.678;2022-08-24T19:56:04;4.43;;;2.25;;
24034;SDS011;12242;50.952;4.678;2022-08-24T19:58:37;3.05;;;2.03;;
24034;SDS011;12242;50.952;4.678;2022-08-24T20:01:10;4.13;;;1.95;;